Time;durP1;ratioP1;P1;durP2;ratioP2;P2;SDS_P1;SDS_P2;PMS_P1;PMS_P2;Temp;Humidity;BMP_temperature;BMP_pressure;BME280_temperature;BME280_humidity;BME280_pressure;Samples;Min_cycle;Max_cycle;Signal;HPM_P1;HPM_P2
2022/06/25 00:01:20;;;;;;;29.70;27.02;;;17.30;99.90;;;;;;4989740;28;20050;-77
2022/06/25 00:03:47;;;;;;;30.60;27.75;;;17.20;99.90;;;;;;4972243;28;20184;-79
2022/06/25 00:06:15;;;;;;;31.55;28.60;;;17.20;99.90;;;;;;5003618;28;20159;-78
2022/06/25 00:08:44;;;;;;;29.15;26.33;;;17.10;99.90;;;;;;4997611;28;20192;-78
2022/06/25 00:13:56;;;;;;;28.70;26.15;;;17.00;99.90;;;;;;4998356;28;20046;-78
2022/06/25 00:16:22;;;;;;;26.65;24.17;;;17.00;99.90;;;;;;4973287;28;20762;-78
2022/06/25 00:18:48;;;;;;;24.40;22.33;;;17.00;99.90;;;;;;4998531;28;20061;-77
2022/06/25 00:21:14;;;;;;;25.63;23.33;;;17.00;99.90;;;;;;5008968;28;20632;-78
2022/06/25 00:23:40;;;;;;;23.48;21.42;;;17.00;99.90;;;;;;4981094;28;20045;-77
2022/06/25 00:26:06;;;;;;;21.73;19.85;;;17.00;99.90;;;;;;5019642;28;20104;-78
2022/06/25 00:28:32;;;;;;;23.60;21.42;;;17.00;99.90;;;;;;4985186;28;20053;-77
2022/06/25 00:30:58;;;;;;;21.92;19.80;;;17.00;99.90;;;;;;4991001;28;20048;-78
2022/06/25 00:33:24;;;;;;;21.25;19.33;;;16.90;99.90;;;;;;4981902;28;20094;-78
2022/06/25 00:35:51;;;;;;;21.02;19.13;;;17.00;99.90;;;;;;4973400;28;20091;-78
2022/06/25 00:38:16;;;;;;;20.20;18.40;;;16.90;99.90;;;;;;4992845;28;20045;-78
2022/06/25 00:40:43;;;;;;;20.73;18.92;;;16.90;99.90;;;;;;4985154;28;20067;-78
2022/06/25 00:43:10;;;;;;;20.08;18.25;;;16.90;99.90;;;;;;4980232;28;20050;-79
2022/06/25 00:45:36;;;;;;;19.00;17.30;;;16.90;99.90;;;;;;5021028;28;20060;-78
2022/06/25 00:48:02;;;;;;;20.52;18.83;;;16.80;99.90;;;;;;4985829;28;20452;-78
2022/06/25 00:50:28;;;;;;;20.67;18.88;;;16.80;99.90;;;;;;5023924;28;20630;-78
2022/06/25 00:52:57;;;;;;;22.50;20.40;;;16.80;99.90;;;;;;5002392;28;20528;-78
2022/06/25 00:55:27;;;;;;;23.05;21.05;;;16.80;99.90;;;;;;5005656;28;20121;-78
2022/06/25 00:57:58;;;;;;;22.15;20.25;;;16.80;99.90;;;;;;4975343;28;20390;-78
2022/06/25 01:00:24;;;;;;;21.90;20.20;;;16.70;99.90;;;;;;5007128;28;20049;-78
2022/06/25 01:02:50;;;;;;;23.13;21.33;;;16.70;99.90;;;;;;5016254;28;20143;-78
2022/06/25 01:05:18;;;;;;;24.40;22.30;;;16.70;99.90;;;;;;4993212;28;20421;-78
2022/06/25 01:07:47;;;;;;;25.83;23.60;;;16.70;99.90;;;;;;4991525;28;20845;-78
2022/06/25 01:10:17;;;;;;;24.55;22.20;;;16.70;99.90;;;;;;5000562;28;20041;-78
2022/06/25 01:12:44;;;;;;;25.10;23.00;;;16.70;99.90;;;;;;4998797;28;20050;-79
2022/06/25 01:15:20;;;;;;;26.02;23.55;;;16.70;99.90;;;;;;4995407;28;20152;-76
2022/06/25 01:17:52;;;;;;;23.90;21.75;;;16.70;99.90;;;;;;4977406;28;20108;-78
2022/06/25 01:20:23;;;;;;;25.48;23.25;;;16.60;99.90;;;;;;4994690;28;20147;-79
2022/06/25 01:22:51;;;;;;;23.17;21.30;;;16.60;99.90;;;;;;5025074;28;20124;-77
2022/06/25 01:25:17;;;;;;;23.92;21.80;;;16.60;99.90;;;;;;4974932;28;20054;-78
2022/06/25 01:27:44;;;;;;;25.63;23.33;;;16.60;99.90;;;;;;5022042;28;20049;-78
2022/06/25 01:30:11;;;;;;;24.00;21.88;;;16.50;99.90;;;;;;4957925;28;20447;-78
2022/06/25 01:32:38;;;;;;;24.65;22.45;;;16.50;99.90;;;;;;4994800;28;20524;-78
2022/06/25 01:35:09;;;;;;;21.83;19.90;;;16.50;99.90;;;;;;4985236;28;20041;-77
2022/06/25 01:37:36;;;;;;;22.15;20.25;;;16.40;99.90;;;;;;4999712;28;20160;-78
2022/06/25 01:40:06;;;;;;;22.52;20.42;;;16.40;99.90;;;;;;4983117;28;20045;-78
2022/06/25 01:45:17;;;;;;;22.50;20.27;;;16.40;99.90;;;;;;5009892;28;20404;-78
2022/06/25 01:47:44;;;;;;;22.95;20.90;;;16.30;99.90;;;;;;4992256;28;20052;-78
2022/06/25 01:50:11;;;;;;;22.15;20.20;;;16.30;99.90;;;;;;4968053;28;20419;-78
2022/06/25 01:52:38;;;;;;;20.80;19.08;;;16.30;99.90;;;;;;4991167;28;20422;-78
2022/06/25 01:55:06;;;;;;;21.85;19.95;;;16.20;99.90;;;;;;4992382;28;20127;-79
2022/06/25 01:57:36;;;;;;;20.05;18.25;;;16.20;99.90;;;;;;4992362;28;20056;-79
2022/06/25 02:00:05;;;;;;;21.60;19.63;;;16.20;99.90;;;;;;4987379;28;20055;-78
2022/06/25 02:02:41;;;;;;;21.80;19.92;;;16.20;99.90;;;;;;5014716;28;20064;-78
2022/06/25 02:05:10;;;;;;;21.92;19.92;;;16.20;99.90;;;;;;4993300;28;20052;-78
2022/06/25 02:07:36;;;;;;;22.80;20.80;;;16.20;99.90;;;;;;5001036;28;20103;-78
2022/06/25 02:10:03;;;;;;;21.83;19.77;;;16.20;99.90;;;;;;4955756;28;20056;-78
2022/06/25 02:12:29;;;;;;;19.83;18.13;;;16.20;99.90;;;;;;4977654;28;20042;-78
2022/06/25 02:14:55;;;;;;;20.05;18.50;;;16.20;99.90;;;;;;5005661;28;20049;-78
2022/06/25 02:17:21;;;;;;;20.23;18.52;;;16.10;99.90;;;;;;4975645;28;20045;-78
2022/06/25 02:19:47;;;;;;;21.92;19.92;;;16.10;99.90;;;;;;5001551;28;20148;-78
2022/06/25 02:22:15;;;;;;;23.35;21.27;;;16.10;99.90;;;;;;4988049;28;20476;-78
2022/06/25 02:24:44;;;;;;;22.45;20.52;;;16.10;99.90;;;;;;5001074;28;20674;-78
2022/06/25 02:27:10;;;;;;;23.42;21.23;;;16.10;99.90;;;;;;4992353;28;20053;-78
2022/06/25 02:29:37;;;;;;;23.77;21.60;;;16.10;99.90;;;;;;5005343;28;20091;-78
2022/06/25 02:32:04;;;;;;;26.45;23.98;;;16.10;99.90;;;;;;4976539;28;20041;-78
2022/06/25 02:34:30;;;;;;;24.88;22.80;;;16.10;99.90;;;;;;4988037;28;20128;-78
2022/06/25 02:36:56;;;;;;;24.73;22.45;;;16.10;99.90;;;;;;4959276;28;20787;-79
2022/06/25 02:39:25;;;;;;;23.50;21.20;;;16.00;99.90;;;;;;4998513;28;20045;-79
2022/06/25 02:41:51;;;;;;;25.33;23.10;;;16.00;99.90;;;;;;5000201;28;20606;-78
2022/06/25 02:44:19;;;;;;;25.02;22.83;;;16.00;99.90;;;;;;4982471;28;20040;-78
2022/06/25 02:46:52;;;;;;;26.42;23.92;;;16.00;99.90;;;;;;5016403;28;20053;-78
2022/06/25 02:49:22;;;;;;;23.77;21.67;;;16.00;99.90;;;;;;4998344;28;20056;-78
2022/06/25 02:51:48;;;;;;;25.90;23.60;;;16.00;99.90;;;;;;4982284;28;20083;-78
2022/06/25 02:54:14;;;;;;;25.52;23.23;;;15.90;99.90;;;;;;5005054;28;20507;-77
2022/06/25 02:59:27;;;;;;;27.17;24.88;;;15.90;99.90;;;;;;5019390;28;20087;-78
2022/06/25 03:01:58;;;;;;;27.25;24.95;;;15.90;99.90;;;;;;4985770;28;20648;-78
2022/06/25 03:04:30;;;;;;;27.05;24.65;;;15.90;99.90;;;;;;4973477;28;20128;-78
2022/06/25 03:06:57;;;;;;;28.80;26.17;;;16.00;99.90;;;;;;4957805;28;20680;-77
2022/06/25 03:09:23;;;;;;;29.33;26.55;;;16.00;99.90;;;;;;4990643;28;20044;-78
2022/06/25 03:11:49;;;;;;;28.77;26.17;;;16.00;99.90;;;;;;5013497;28;20133;-77
2022/06/25 03:14:17;;;;;;;27.00;24.80;;;16.00;99.90;;;;;;4952376;28;20184;-77
2022/06/25 03:16:47;;;;;;;24.58;22.40;;;15.90;99.90;;;;;;5001344;28;20046;-78
2022/06/25 03:19:14;;;;;;;23.77;21.67;;;15.90;99.90;;;;;;5004359;28;20115;-77
2022/06/25 03:21:46;;;;;;;27.55;25.23;;;15.90;99.90;;;;;;5012492;28;20100;-78
2022/06/25 03:24:14;;;;;;;27.67;25.27;;;15.90;99.90;;;;;;5006823;28;20084;-78
2022/06/25 03:26:40;;;;;;;26.42;23.92;;;15.90;99.90;;;;;;4970170;28;20055;-77
2022/06/25 03:29:06;;;;;;;27.00;24.42;;;15.90;99.90;;;;;;4992044;28;20427;-78
2022/06/25 03:31:35;;;;;;;27.70;25.13;;;15.90;99.90;;;;;;4999058;28;20133;-77
2022/06/25 03:34:11;;;;;;;25.58;23.17;;;15.90;99.90;;;;;;5010804;28;20055;-77
2022/06/25 03:36:47;;;;;;;27.20;24.80;;;15.90;99.90;;;;;;5005501;28;20404;-77
2022/06/25 03:39:16;;;;;;;26.65;24.42;;;15.90;99.90;;;;;;5003596;28;20118;-77
2022/06/25 03:41:43;;;;;;;27.00;24.40;;;15.90;99.90;;;;;;4985773;28;20057;-77
2022/06/25 03:44:34;;;;;;;26.45;24.00;;;15.90;99.90;;;;;;4983387;28;20045;-79
2022/06/25 03:47:10;;;;;;;26.33;23.98;;;15.90;99.90;;;;;;4974091;28;20517;-77
2022/06/25 03:49:38;;;;;;;26.80;24.38;;;15.90;99.90;;;;;;4999557;28;20769;-77
2022/06/25 03:52:11;;;;;;;25.80;23.40;;;15.90;99.90;;;;;;5002936;28;20056;-77
2022/06/25 03:54:38;;;;;;;25.77;23.30;;;15.90;99.90;;;;;;4972488;28;20123;-77
2022/06/25 03:57:04;;;;;;;24.77;22.42;;;15.90;99.90;;;;;;5004460;28;20164;-77
2022/06/25 03:59:55;;;;;;;24.73;22.50;;;15.90;99.90;;;;;;4993851;28;20612;-77
2022/06/25 04:02:27;;;;;;;24.73;22.50;;;15.90;99.90;;;;;;5022657;28;20776;-77
2022/06/25 04:05:19;;;;;;;24.55;22.05;;;16.00;99.90;;;;;;4969793;28;20540;-78
2022/06/25 04:07:46;;;;;;;24.15;21.85;;;16.00;99.90;;;;;;4996998;28;20128;-77
2022/06/25 04:10:12;;;;;;;24.40;22.00;;;16.00;99.90;;;;;;4999774;28;20049;-77
2022/06/25 04:12:40;;;;;;;23.67;21.58;;;16.10;99.90;;;;;;4986781;28;20053;-78
2022/06/25 04:15:07;;;;;;;22.75;20.75;;;16.10;99.90;;;;;;4998417;28;20057;-77
2022/06/25 04:17:33;;;;;;;22.15;20.17;;;16.20;99.90;;;;;;5006602;28;20045;-77
2022/06/25 04:20:02;;;;;;;22.70;20.70;;;16.20;99.90;;;;;;4992443;28;20127;-78
2022/06/25 04:22:28;;;;;;;20.40;18.50;;;16.30;99.90;;;;;;4967489;28;20076;-78
2022/06/25 04:24:56;;;;;;;21.52;19.63;;;16.30;99.90;;;;;;4964438;28;20055;-78
2022/06/25 04:30:09;;;;;;;21.23;19.25;;;16.40;99.90;;;;;;4989207;28;20506;-77
2022/06/25 04:32:35;;;;;;;21.25;19.35;;;16.50;99.90;;;;;;4972004;28;20042;-78
2022/06/25 04:35:12;;;;;;;22.27;20.40;;;16.50;99.90;;;;;;4958982;28;20064;-77
2022/06/25 04:37:40;;;;;;;20.08;18.23;;;16.60;99.90;;;;;;4988171;28;20041;-77
2022/06/25 04:40:09;;;;;;;20.48;18.58;;;16.70;99.90;;;;;;4979191;28;20045;-78
2022/06/25 04:42:36;;;;;;;20.88;18.90;;;16.70;99.90;;;;;;4985436;28;20048;-77
2022/06/25 04:45:03;;;;;;;19.80;17.80;;;16.80;99.90;;;;;;4979893;28;20076;-77
2022/06/25 04:47:35;;;;;;;18.30;16.55;;;16.90;99.90;;;;;;4967021;28;20131;-77
2022/06/25 04:50:30;;;;;;;18.25;16.50;;;16.90;99.90;;;;;;5014741;28;20054;-77
2022/06/25 04:52:56;;;;;;;17.88;16.38;;;17.00;99.90;;;;;;4995762;28;20349;-77
2022/06/25 04:55:23;;;;;;;16.58;15.13;;;17.00;99.90;;;;;;4986036;28;20033;-77
2022/06/25 04:57:49;;;;;;;16.13;14.70;;;17.10;99.90;;;;;;4981941;28;20115;-77
2022/06/25 05:00:33;;;;;;;15.82;14.40;;;17.20;99.90;;;;;;4993907;28;20402;-77
2022/06/25 05:03:00;;;;;;;15.60;14.15;;;17.30;99.90;;;;;;4964925;28;20059;-77
2022/06/25 05:05:26;;;;;;;15.75;14.25;;;17.40;99.90;;;;;;4982210;28;20045;-77
2022/06/25 05:07:52;;;;;;;15.70;14.40;;;17.50;99.90;;;;;;4972758;28;20056;-78
2022/06/25 05:10:18;;;;;;;14.10;12.48;;;17.60;99.90;;;;;;4985572;28;20045;-77
2022/06/25 05:15:29;;;;;;;12.25;10.98;;;18.20;99.90;;;;;;4973488;28;20566;-77
2022/06/25 05:17:55;;;;;;;12.77;10.57;;;18.50;99.90;;;;;;4986005;28;20037;-78
2022/06/25 05:20:23;;;;;;;10.50;9.50;;;18.80;99.90;;;;;;5011105;28;20056;-78
2022/06/25 05:22:49;;;;;;;10.23;9.20;;;18.90;99.90;;;;;;4972398;28;20083;-78
2022/06/25 05:25:16;;;;;;;9.25;8.35;;;19.10;99.90;;;;;;5004152;28;20052;-78
2022/06/25 05:27:42;;;;;;;9.55;8.65;;;19.30;99.90;;;;;;4974183;28;20060;-78
2022/06/25 05:30:11;;;;;;;11.43;9.65;;;19.30;99.90;;;;;;4988804;28;20045;-78
2022/06/25 05:32:37;;;;;;;10.45;8.57;;;19.40;99.90;;;;;;4999525;28;20052;-78
2022/06/25 05:35:04;;;;;;;9.35;8.38;;;19.40;99.90;;;;;;4999365;28;20048;-77
2022/06/25 05:37:30;;;;;;;9.50;8.00;;;19.50;99.90;;;;;;5009682;28;20619;-78
2022/06/25 05:39:56;;;;;;;10.30;7.97;;;19.60;99.90;;;;;;4979293;28;20057;-78
2022/06/25 05:42:22;;;;;;;8.13;7.22;;;19.70;99.90;;;;;;4953083;28;20049;-75
2022/06/25 05:44:48;;;;;;;9.55;8.60;;;19.90;99.90;;;;;;5017558;28;20053;-78
2022/06/25 05:47:14;;;;;;;8.48;7.68;;;19.90;99.90;;;;;;4998601;28;20050;-78
2022/06/25 05:49:41;;;;;;;8.10;7.28;;;20.00;99.90;;;;;;4965863;28;20144;-78
2022/06/25 05:52:07;;;;;;;8.65;7.95;;;20.10;99.90;;;;;;4954499;28;20037;-77
2022/06/25 05:54:35;;;;;;;8.05;7.25;;;20.20;99.90;;;;;;4976156;28;20061;-78
2022/06/25 05:57:01;;;;;;;7.82;7.03;;;20.30;99.90;;;;;;4990717;28;20472;-79
2022/06/25 05:59:27;;;;;;;7.03;6.03;;;20.40;99.90;;;;;;4971575;28;20046;-78
2022/06/25 06:01:53;;;;;;;6.88;6.25;;;20.60;99.90;;;;;;4965159;28;20053;-77
2022/06/25 06:04:20;;;;;;;7.07;6.38;;;20.70;99.90;;;;;;4998025;28;20054;-78
2022/06/25 06:06:46;;;;;;;7.22;6.03;;;20.90;99.90;;;;;;4976557;28;20048;-78
2022/06/25 06:09:12;;;;;;;7.68;4.95;;;21.00;99.90;;;;;;5009421;28;20162;-77
2022/06/25 06:11:38;;;;;;;7.00;5.30;;;21.00;99.90;;;;;;4969365;28;20052;-78
2022/06/25 06:14:07;;;;;;;31.10;28.17;;;20.80;99.90;;;;;;5006727;28;20084;-80
2022/06/25 06:16:40;;;;;;;46.05;41.60;;;21.00;99.90;;;;;;5005329;28;20053;-79
2022/06/25 06:19:10;;;;;;;13.25;11.55;;;20.90;99.90;;;;;;5005024;28;20089;-80
2022/06/25 06:21:37;;;;;;;8.65;6.88;;;21.10;99.90;;;;;;4984357;28;20068;-79
2022/06/25 06:24:07;;;;;;;9.82;7.78;;;21.00;99.90;;;;;;5012962;28;20045;-80
2022/06/25 06:26:34;;;;;;;14.15;9.75;;;21.20;99.90;;;;;;4987444;28;20144;-80
2022/06/25 06:29:00;;;;;;;6.75;5.45;;;21.30;99.90;;;;;;4977725;28;20081;-80
2022/06/25 06:31:27;;;;;;;6.18;4.78;;;21.50;99.90;;;;;;4985453;28;20045;-79
2022/06/25 06:33:53;;;;;;;6.70;4.40;;;21.70;99.90;;;;;;5027399;28;20602;-79
2022/06/25 06:36:19;;;;;;;7.07;4.85;;;22.10;99.90;;;;;;4985254;28;20490;-79
2022/06/25 06:38:45;;;;;;;6.55;4.13;;;22.20;99.90;;;;;;4951504;28;20049;-78
2022/06/25 06:41:16;;;;;;;11.48;4.47;;;22.10;99.90;;;;;;5013302;28;20057;-77
2022/06/25 06:43:48;;;;;;;6.85;4.53;;;22.10;99.90;;;;;;4979230;28;20140;-78
2022/06/25 06:46:14;;;;;;;7.47;4.55;;;22.20;99.90;;;;;;5000000;28;20053;-78
2022/06/25 06:48:41;;;;;;;18.25;16.42;;;22.30;99.90;;;;;;5007134;28;20220;-77
2022/06/25 06:51:07;;;;;;;34.33;30.90;;;22.50;99.90;;;;;;5001598;28;20045;-81
2022/06/25 06:53:34;;;;;;;9.18;6.85;;;22.60;99.90;;;;;;4984794;28;20045;-80
2022/06/25 06:56:00;;;;;;;9.70;5.82;;;22.80;99.90;;;;;;4984625;28;20143;-80
2022/06/25 06:58:28;;;;;;;10.48;6.03;;;22.70;99.90;;;;;;4979848;28;20120;-81
2022/06/25 07:00:54;;;;;;;8.27;4.18;;;22.60;99.90;;;;;;5016738;28;20056;-80
2022/06/25 07:03:20;;;;;;;8.23;4.47;;;22.60;99.90;;;;;;4980811;28;20050;-80
2022/06/25 07:05:46;;;;;;;7.85;4.10;;;22.70;99.90;;;;;;5002682;28;20077;-80
2022/06/25 07:08:30;;;;;;;6.25;3.90;;;22.80;99.90;;;;;;4953823;28;20045;-79
2022/06/25 07:10:56;;;;;;;7.07;3.45;;;23.10;99.90;;;;;;4994251;28;20168;-78
2022/06/25 07:13:22;;;;;;;11.32;5.05;;;23.10;99.90;;;;;;4976386;28;20049;-80
2022/06/25 07:15:48;;;;;;;9.90;7.03;;;23.40;99.90;;;;;;4968091;28;20045;-80
2022/06/25 07:18:15;;;;;;;7.15;4.65;;;23.60;99.90;;;;;;4968561;28;20124;-80
2022/06/25 07:20:41;;;;;;;6.28;4.10;;;23.70;99.90;;;;;;5018796;28;20065;-80
2022/06/25 07:23:07;;;;;;;7.03;4.28;;;23.70;99.90;;;;;;4992044;28;20451;-80
2022/06/25 07:25:33;;;;;;;6.80;3.47;;;23.80;99.90;;;;;;4991457;28;20184;-80
2022/06/25 07:27:59;;;;;;;10.10;9.13;;;23.50;99.90;;;;;;4976486;28;20045;-80
2022/06/25 07:30:25;;;;;;;8.82;5.95;;;23.80;99.90;;;;;;5015226;28;20083;-80
2022/06/25 07:32:51;;;;;;;7.72;3.55;;;23.80;99.90;;;;;;4985229;28;20089;-80
2022/06/25 07:35:18;;;;;;;6.88;3.05;;;24.30;99.90;;;;;;4967801;28;20152;-79
2022/06/25 07:37:44;;;;;;;6.05;2.55;;;24.20;99.90;;;;;;4983313;28;20111;-82
2022/06/25 07:40:22;;;;;;;5.28;2.90;;;24.20;99.90;;;;;;4974028;28;20089;-81
2022/06/25 07:42:50;;;;;;;4.03;2.28;;;24.30;99.90;;;;;;4982252;28;20057;-81
2022/06/25 07:45:19;;;;;;;4.63;2.15;;;24.80;99.90;;;;;;4957122;28;20070;-78
2022/06/25 07:47:45;;;;;;;54.95;49.60;;;25.00;99.90;;;;;;4990562;28;20057;-81
2022/06/25 07:52:57;;;;;;;8.27;4.82;;;25.40;99.90;;;;;;5004917;28;20045;-81
2022/06/25 07:55:23;;;;;;;4.45;2.63;;;25.40;99.90;;;;;;5009779;28;20545;-81
2022/06/25 07:57:49;;;;;;;4.97;3.30;;;25.30;99.90;;;;;;5007842;28;20085;-81
2022/06/25 08:00:16;;;;;;;4.93;2.75;;;25.50;99.90;;;;;;4991616;28;20041;-81
2022/06/25 08:02:42;;;;;;;4.82;2.58;;;25.80;99.90;;;;;;5018173;28;20056;-81
2022/06/25 08:05:12;;;;;;;7.68;4.70;;;25.80;99.90;;;;;;4992580;28;20096;-81
2022/06/25 08:07:38;;;;;;;5.93;2.88;;;25.90;99.90;;;;;;4998467;28;20049;-81
2022/06/25 08:10:04;;;;;;;7.22;4.13;;;25.90;99.90;;;;;;5008114;28;20132;-79
2022/06/25 08:12:31;;;;;;;15.20;13.55;;;26.10;99.90;;;;;;4952951;28;20041;-81
2022/06/25 08:14:58;;;;;;;12.45;7.85;;;25.80;99.90;;;;;;4958876;28;20099;-79
2022/06/25 08:17:24;;;;;;;6.35;3.85;;;25.80;99.90;;;;;;4992804;28;20041;-82
2022/06/25 08:19:51;;;;;;;10.27;8.20;;;25.60;99.90;;;;;;4972955;28;20068;-82
2022/06/25 08:22:17;;;;;;;5.55;2.22;;;25.90;99.90;;;;;;4989828;28;20041;-82
2022/06/25 08:24:44;;;;;;;7.63;6.22;;;25.90;99.90;;;;;;4997675;28;20044;-82
2022/06/25 08:27:14;;;;;;;7.15;3.47;;;26.00;99.90;;;;;;5006906;28;20046;-83
2022/06/25 08:29:40;;;;;;;3.85;2.30;;;26.10;99.90;;;;;;5004245;28;20107;-83
2022/06/25 08:32:09;;;;;;;6.32;2.38;;;25.90;99.90;;;;;;4998565;28;20096;-84
2022/06/25 08:34:35;;;;;;;6.28;4.47;;;26.10;99.90;;;;;;5006524;28;20072;-83
2022/06/25 08:37:02;;;;;;;4.45;1.73;;;26.10;99.90;;;;;;5010540;28;20178;-84
2022/06/25 08:39:32;;;;;;;4.13;1.83;;;25.80;99.90;;;;;;5043623;28;20034;-84
2022/06/25 08:42:03;;;;;;;3.72;1.85;;;25.50;99.90;;;;;;5011948;28;20049;-85
2022/06/25 08:44:33;;;;;;;4.88;1.60;;;25.30;99.90;;;;;;4999027;28;20711;-84
2022/06/25 08:46:59;;;;;;;5.30;2.78;;;25.20;99.90;;;;;;4988492;28;20108;-81
2022/06/25 08:49:33;;;;;;;6.75;3.78;;;25.80;99.90;;;;;;4991676;28;20049;-86
2022/06/25 08:52:01;;;;;;;6.88;3.85;;;25.90;99.90;;;;;;5004962;28;20045;-83
2022/06/25 08:54:29;;;;;;;12.43;8.45;;;26.20;99.90;;;;;;5010748;28;20041;-83
2022/06/25 08:56:55;;;;;;;9.00;6.82;;;26.20;99.90;;;;;;4994723;28;20049;-82
2022/06/25 08:59:22;;;;;;;11.30;10.10;;;26.10;99.90;;;;;;4992951;28;20121;-84
2022/06/25 09:01:49;;;;;;;5.63;2.92;;;26.20;99.90;;;;;;4987391;28;20041;-84
2022/06/25 09:04:15;;;;;;;3.90;3.30;;;26.20;99.90;;;;;;4971747;28;20054;-84
2022/06/25 09:06:42;;;;;;;3.13;1.92;;;26.30;99.90;;;;;;4976094;28;20056;-83
2022/06/25 09:09:16;;;;;;;5.57;2.95;;;26.60;99.90;;;;;;4969575;28;20107;-84
2022/06/25 09:12:07;;;;;;;;;;;;;;;;;;;;;
2022/06/25 09:14:35;;;;;;;;;;;26.40;99.90;;;;;;5002676;28;20549;-86
2022/06/25 09:17:09;;;;;;;5.55;2.33;;;25.90;99.90;;;;;;4972422;28;19922;-85
2022/06/25 09:19:37;;;;;;;7.13;2.08;;;26.00;99.90;;;;;;5006052;28;20053;-85
2022/06/25 09:22:05;;;;;;;3.97;2.10;;;26.20;99.90;;;;;;4992631;28;20409;-85
2022/06/25 09:24:48;;;;;;;9.57;4.38;;;26.70;99.90;;;;;;4955195;28;20045;-85
2022/06/25 09:27:20;;;;;;;3.33;1.98;;;27.00;99.90;;;;;;4992958;28;20048;-81
2022/06/25 09:29:51;;;;;;;6.43;3.78;;;26.70;99.90;;;;;;4981819;28;20717;-84
2022/06/25 09:32:18;;;;;;;3.45;1.80;;;26.50;99.90;;;;;;4978131;28;20041;-85
2022/06/25 09:34:45;;;;;;;14.77;13.35;;;26.10;99.90;;;;;;5006453;28;20063;-85
2022/06/25 09:37:19;;;;;;;8.60;7.70;;;25.80;99.90;;;;;;5010751;28;20099;-85
2022/06/25 09:39:47;;;;;;;5.82;4.10;;;25.50;99.90;;;;;;5008059;28;20079;-85
2022/06/25 09:42:22;;;;;;;8.98;2.20;;;26.10;99.90;;;;;;4958708;28;20045;-85
2022/06/25 09:44:57;;;;;;;4.35;2.42;;;26.40;99.90;;;;;;5003124;28;20045;-85
2022/06/25 09:47:24;;;;;;;5.30;3.63;;;26.70;99.90;;;;;;4980601;28;20045;-85
2022/06/25 09:50:02;;;;;;;4.03;2.42;;;27.20;99.90;;;;;;4988409;28;20045;-80
2022/06/25 09:52:28;;;;;;;2.60;1.30;;;27.80;99.90;;;;;;4997613;28;20045;-80
2022/06/25 09:54:54;;;;;;;3.33;2.25;;;28.00;99.90;;;;;;4971691;28;20049;-81
2022/06/25 09:57:21;;;;;;;5.25;1.70;;;27.60;99.90;;;;;;4986318;28;20397;-79
2022/06/25 09:59:50;;;;;;;5.82;1.35;;;27.60;99.90;;;;;;4956774;28;20091;-81
2022/06/25 10:02:18;;;;;;;5.35;1.50;;;27.60;99.90;;;;;;4990776;28;20648;-80
2022/06/25 10:04:47;;;;;;;4.50;1.30;;;27.70;99.90;;;;;;4984087;28;20054;-79
2022/06/25 10:07:15;;;;;;;2.78;1.50;;;28.30;99.90;;;;;;5009796;28;20410;-80
2022/06/25 10:09:46;;;;;;;3.78;1.30;;;28.70;99.90;;;;;;4997750;28;20078;-80
2022/06/25 10:12:13;;;;;;;;;;;28.60;99.90;;;;;;4979175;28;20403;-79
2022/06/25 10:14:40;;;;;;;3.20;0.90;;;28.80;99.90;;;;;;4963680;28;20002;-79
2022/06/25 10:17:07;;;;;;;3.95;1.55;;;28.00;92.40;;;;;;4995828;28;20042;-80
2022/06/25 10:19:34;;;;;;;2.58;1.13;;;27.60;98.90;;;;;;5002176;28;20057;-80
2022/06/25 10:22:00;;;;;;;2.05;1.00;;;27.30;99.90;;;;;;5008037;28;20048;-79
2022/06/25 10:24:28;;;;;;;3.33;1.50;;;26.90;99.90;;;;;;4959163;28;20047;-79
2022/06/25 10:26:54;;;;;;;3.72;1.67;;;26.60;99.90;;;;;;4973721;28;20049;-79
2022/06/25 10:29:25;;;;;;;2.92;2.20;;;26.40;99.90;;;;;;4999861;28;20052;-76
2022/06/25 10:32:17;;;;;;;107.13;97.65;;;26.40;99.90;;;;;;4967082;28;20144;-79
2022/06/25 10:34:55;;;;;;;6.85;3.65;;;26.80;99.90;;;;;;4990026;28;20584;-79
2022/06/25 10:37:21;;;;;;;2.80;1.63;;;27.10;99.90;;;;;;4987096;28;20047;-80
2022/06/25 10:39:53;;;;;;;6.43;2.75;;;27.00;99.90;;;;;;5005902;28;20041;-80
2022/06/25 10:45:15;;;;;;;4.40;3.55;;;26.20;99.90;;;;;;4997006;28;20046;-81
2022/06/25 10:47:53;;;;;;;4.13;1.85;;;26.60;99.90;;;;;;4959740;28;20050;-82
2022/06/25 10:50:22;;;;;;;3.70;1.40;;;26.70;99.90;;;;;;5009828;28;20076;-81
2022/06/25 10:53:02;;;;;;;5.38;1.88;;;26.90;99.90;;;;;;5002209;28;20049;-81
2022/06/25 10:55:34;;;;;;;5.80;1.60;;;27.20;99.90;;;;;;4977374;28;20088;-82
2022/06/25 10:58:28;;;;;;;3.60;1.80;;;28.00;99.90;;;;;;4993555;28;20037;-81
2022/06/25 11:01:01;;;;;;;3.30;1.23;;;28.80;97.80;;;;;;4952304;28;20049;-81
2022/06/25 11:03:27;;;;;;;2.78;1.00;;;28.90;87.50;;;;;;5001032;28;20483;-81
2022/06/25 11:05:59;;;;;;;3.50;1.40;;;28.60;98.70;;;;;;5007869;28;20045;-81
2022/06/25 11:08:37;;;;;;;3.20;1.17;;;29.20;97.90;;;;;;5022950;28;20417;-81
2022/06/25 11:11:05;;;;;;;3.95;1.55;;;29.70;93.00;;;;;;5022325;28;20123;-81
2022/06/25 11:13:32;;;;;;;2.92;1.27;;;29.70;94.50;;;;;;4966388;28;20369;-81
2022/06/25 11:15:58;;;;;;;3.78;1.33;;;29.00;93.30;;;;;;4986550;28;20492;-81
2022/06/25 11:18:28;;;;;;;2.92;1.08;;;28.90;92.00;;;;;;4993609;28;20615;-80
2022/06/25 11:20:54;;;;;;;1.80;1.08;;;28.90;98.30;;;;;;5011699;28;20058;-81
2022/06/25 11:23:20;;;;;;;3.65;1.00;;;28.50;90.50;;;;;;4948453;28;20723;-81
2022/06/25 11:28:47;;;;;;;2.97;1.15;;;27.90;97.80;;;;;;4986251;28;20064;-81
2022/06/25 11:31:23;;;;;;;4.40;1.38;;;27.60;98.30;;;;;;5003251;28;20037;-81
2022/06/25 11:33:51;;;;;;;2.35;1.38;;;28.40;94.70;;;;;;4976891;28;20081;-82
2022/06/25 11:36:20;;;;;;;2.55;1.48;;;28.60;95.00;;;;;;4981999;28;20110;-81
2022/06/25 11:38:52;;;;;;;3.15;1.13;;;27.90;98.00;;;;;;4986015;28;20933;-81
2022/06/25 11:41:20;;;;;;;4.78;0.80;;;27.60;99.40;;;;;;4996573;28;20046;-81
2022/06/25 11:43:46;;;;;;;2.28;0.98;;;27.40;99.90;;;;;;4988522;28;20053;-82
2022/06/25 11:46:18;;;;;;;17.63;16.00;;;26.90;99.90;;;;;;4979025;28;20057;-80
2022/06/25 11:48:47;;;;;;;21.50;19.25;;;26.80;99.90;;;;;;5004245;28;20057;-80
2022/06/25 11:51:23;;;;;;;6.43;4.40;;;26.40;99.90;;;;;;4973939;28;20041;-82
2022/06/25 11:53:50;;;;;;;3.47;1.50;;;26.20;99.90;;;;;;5007052;28;20520;-82
2022/06/25 11:56:16;;;;;;;17.98;13.68;;;25.90;99.90;;;;;;5009028;28;20445;-82
2022/06/25 11:58:44;;;;;;;4.85;3.45;;;25.90;99.90;;;;;;4960781;28;20083;-83
2022/06/25 12:01:10;;;;;;;3.08;1.52;;;25.80;99.90;;;;;;5004098;28;20069;-82
2022/06/25 12:03:37;;;;;;;7.45;5.05;;;25.60;99.90;;;;;;5015470;28;20071;-82
2022/06/25 12:06:05;;;;;;;3.08;2.10;;;25.50;99.90;;;;;;5029866;28;20534;-82
2022/06/25 12:08:32;;;;;;;2.13;1.58;;;25.20;99.90;;;;;;4974253;28;20572;-81
2022/06/25 12:11:00;;;;;;;3.05;1.50;;;25.00;99.90;;;;;;4991441;28;20045;-83
2022/06/25 12:13:31;;;;;;;22.40;20.20;;;24.70;99.90;;;;;;5006109;28;20088;-82
2022/06/25 12:15:58;;;;;;;45.75;41.55;;;24.70;99.90;;;;;;5006815;28;20041;-81
2022/06/25 12:18:42;;;;;;;8.52;5.18;;;24.60;99.90;;;;;;5003701;28;20099;-81
2022/06/25 12:21:09;;;;;;;6.78;3.45;;;24.70;99.90;;;;;;4961563;28;20057;-79
2022/06/25 12:23:53;;;;;;;7.38;2.35;;;24.70;99.90;;;;;;4981736;28;20466;-80
2022/06/25 12:26:27;;;;;;;6.75;2.58;;;24.70;99.90;;;;;;4970120;28;20365;-77
2022/06/25 12:29:11;;;;;;;15.90;4.88;;;24.60;99.90;;;;;;4972835;28;20109;-78
2022/06/25 12:31:38;;;;;;;4.63;1.80;;;24.50;99.90;;;;;;4984598;28;20141;-78
2022/06/25 12:34:05;;;;;;;2.58;1.67;;;24.70;99.90;;;;;;4983196;28;20042;-81
2022/06/25 12:36:39;;;;;;;3.80;1.80;;;24.60;99.90;;;;;;4964120;28;20049;-81
2022/06/25 12:39:43;;;;;;;3.53;1.70;;;24.50;99.90;;;;;;4952491;28;20050;-81
2022/06/25 12:42:13;;;;;;;4.80;1.63;;;24.50;99.90;;;;;;4931641;28;20045;-80
2022/06/25 12:44:46;;;;;;;4.35;1.70;;;24.30;99.90;;;;;;5021195;28;20512;-80
2022/06/25 12:47:15;;;;;;;4.63;1.80;;;24.20;99.90;;;;;;4961209;28;20057;-78
2022/06/25 12:49:52;;;;;;;1.92;1.40;;;24.00;99.90;;;;;;5002115;28;20129;-81
2022/06/25 12:52:39;;;;;;;24.90;22.13;;;23.90;99.90;;;;;;4969785;28;20050;-78
2022/06/25 12:55:06;;;;;;;6.20;4.65;;;23.70;99.90;;;;;;4985646;28;20046;-79
2022/06/25 12:57:37;;;;;;;6.22;2.33;;;23.60;99.90;;;;;;4987330;28;20034;-80
2022/06/25 13:00:15;;;;;;;13.98;12.48;;;23.50;99.90;;;;;;5004975;28;20045;-79
2022/06/25 13:02:41;;;;;;;11.48;7.53;;;23.50;99.90;;;;;;4956291;28;20148;-79
2022/06/25 13:05:07;;;;;;;8.40;3.15;;;23.70;99.90;;;;;;4988859;28;20041;-79
2022/06/25 13:07:34;;;;;;;5.40;2.15;;;23.70;99.90;;;;;;4969030;28;20207;-79
2022/06/25 13:10:00;;;;;;;7.63;4.13;;;23.60;99.90;;;;;;4933558;28;20050;-80